This is the latest recevied weather packets stored in our database for station/object CYFC. If no packets are shown the sender has not sent any weather packets the latest 10 day(s).
| Time | Temp. | Humidity | Pressure | Rain* | Wind** | Luminosity | Snow |
|---|---|---|---|---|---|---|---|
| 1788634999 | 15.56° C | 82% | 1010.2 hPa | - | - | - | - |
| 1788634395 | 15° C | 82% | 1010.2 hPa | - | - | - | - |
| 1788633794 | 15° C | 82% | 1010.2 hPa | - | - | - | - |
| 1788633196 | 16.67° C | 77% | 1010.2 hPa | - | - | - | - |
| 1788632595 | 16.67° C | 77% | 1009.8 hPa | - | - | - | - |
| 1788631994 | 16.67° C | 77% | 1009.8 hPa | - | - | - | - |
| 1788631396 | 16.67° C | 88% | 1009.5 hPa | - | - | - | - |
| 1788630797 | 16.67° C | 88% | 1009.5 hPa | - | - | - | - |
| 1788630195 | 16.67° C | 88% | 1009.5 hPa | - | - | - | - |
| 1788629597 | 16.67° C | 88% | 1009.5 hPa | - | - | - | - |
| 1788628994 | 15.56° C | 87% | 1009.5 hPa | - | - | - | - |
| 1788628397 | 16.67° C | 82% | 1009.5 hPa | - | - | - | - |
| 1788627803 | 16.67° C | 82% | 1009.5 hPa | - | - | - | - |
| 1788627196 | 15.56° C | 82% | 1009.5 hPa | - | - | - | - |
| 1788626596 | 16.67° C | 77% | 1009.5 hPa | - | - | - | - |
| 1788626000 | 17.78° C | 72% | 1009.5 hPa | - | - | - | - |
| 1788625394 | 17.78° C | 72% | 1009.5 hPa | - | - | - | - |
| 1788624794 | 15.56° C | 82% | 1009.5 hPa | - | - | - | - |
| 1788624222 | 16.67° C | 77% | 1009.5 hPa | - | - | - | - |
| 1788623598 | 16.67° C | 77% | 1009.5 hPa | - | - | - | - |
| 1788622995 | 16.67° C | 67% | 1009.1 hPa | - | - | - | - |
| 1788622399 | 16.67° C | 67% | 1009.1 hPa | - | - | - | - |
| 1788621797 | 16.67° C | 72% | 1009.1 hPa | - | - | - | - |
| 1788621193 | 17.78° C | 67% | 1009.1 hPa | - | - | - | - |
| 1788620597 | 15.56° C | 82% | 1009.1 hPa | - | - | - | - |
* Rain since midnight (hover to see other rain measurements)
** Current wind speed in m/s (hover to see current wind gust speed)